sensor_id;sensor_type;location;lat;lon;timestamp;P1;durP1;ratioP1;P2;durP2;ratioP2
18623;SDS011;9441;51.420;7.036;2023-10-31T00:00:55;10.77;;;7.23;;
18623;SDS011;9441;51.420;7.036;2023-10-31T00:01:57;9.20;;;7.07;;
18623;SDS011;9441;51.420;7.036;2023-10-31T00:02:58;9.40;;;7.20;;
18623;SDS011;9441;51.420;7.036;2023-10-31T00:04:02;11.27;;;7.93;;
18623;SDS011;9441;51.420;7.036;2023-10-31T00:05:03;11.27;;;8.00;;
18623;SDS011;9441;51.420;7.036;2023-10-31T00:06:06;10.97;;;8.13;;
18623;SDS011;9441;51.420;7.036;2023-10-31T00:07:08;10.83;;;7.90;;
18623;SDS011;9441;51.420;7.036;2023-10-31T00:08:09;11.77;;;8.30;;
18623;SDS011;9441;51.420;7.036;2023-10-31T00:09:11;11.30;;;8.30;;
18623;SDS011;9441;51.420;7.036;2023-10-31T00:10:13;12.23;;;8.07;;
18623;SDS011;9441;51.420;7.036;2023-10-31T00:11:15;11.23;;;7.87;;
18623;SDS011;9441;51.420;7.036;2023-10-31T00:12:16;11.60;;;7.80;;
18623;SDS011;9441;51.420;7.036;2023-10-31T00:13:19;10.63;;;7.90;;
18623;SDS011;9441;51.420;7.036;2023-10-31T00:14:20;10.77;;;7.97;;
18623;SDS011;9441;51.420;7.036;2023-10-31T00:15:22;11.67;;;7.77;;
18623;SDS011;9441;51.420;7.036;2023-10-31T00:16:25;9.47;;;7.60;;
18623;SDS011;9441;51.420;7.036;2023-10-31T00:17:27;10.90;;;7.23;;
18623;SDS011;9441;51.420;7.036;2023-10-31T00:18:28;11.27;;;7.07;;
18623;SDS011;9441;51.420;7.036;2023-10-31T00:19:32;10.97;;;7.83;;
18623;SDS011;9441;51.420;7.036;2023-10-31T00:20:33;10.67;;;8.17;;
18623;SDS011;9441;51.420;7.036;2023-10-31T00:21:35;10.57;;;7.90;;
18623;SDS011;9441;51.420;7.036;2023-10-31T00:22:37;10.90;;;7.70;;
18623;SDS011;9441;51.420;7.036;2023-10-31T00:23:42;9.77;;;7.53;;
18623;SDS011;9441;51.420;7.036;2023-10-31T00:24:44;10.33;;;7.63;;
18623;SDS011;9441;51.420;7.036;2023-10-31T00:25:46;11.47;;;7.90;;
18623;SDS011;9441;51.420;7.036;2023-10-31T00:26:48;10.43;;;7.60;;
18623;SDS011;9441;51.420;7.036;2023-10-31T00:27:49;9.87;;;7.63;;
18623;SDS011;9441;51.420;7.036;2023-10-31T00:28:52;9.67;;;7.63;;
18623;SDS011;9441;51.420;7.036;2023-10-31T00:29:53;10.10;;;6.73;;
18623;SDS011;9441;51.420;7.036;2023-10-31T00:30:54;8.83;;;7.17;;
18623;SDS011;9441;51.420;7.036;2023-10-31T00:31:56;9.33;;;6.53;;
18623;SDS011;9441;51.420;7.036;2023-10-31T00:32:58;8.83;;;5.90;;
18623;SDS011;9441;51.420;7.036;2023-10-31T00:34:00;7.47;;;5.70;;
18623;SDS011;9441;51.420;7.036;2023-10-31T00:35:03;6.67;;;5.17;;
18623;SDS011;9441;51.420;7.036;2023-10-31T00:36:06;7.00;;;5.77;;
18623;SDS011;9441;51.420;7.036;2023-10-31T00:37:08;9.10;;;5.90;;
18623;SDS011;9441;51.420;7.036;2023-10-31T00:38:10;8.53;;;6.67;;
18623;SDS011;9441;51.420;7.036;2023-10-31T00:39:11;9.60;;;7.03;;
18623;SDS011;9441;51.420;7.036;2023-10-31T00:40:14;9.93;;;7.17;;
18623;SDS011;9441;51.420;7.036;2023-10-31T00:41:16;9.83;;;7.30;;
18623;SDS011;9441;51.420;7.036;2023-10-31T00:42:19;9.77;;;7.60;;
18623;SDS011;9441;51.420;7.036;2023-10-31T00:43:20;13.47;;;8.07;;
18623;SDS011;9441;51.420;7.036;2023-10-31T00:44:22;11.13;;;7.93;;
18623;SDS011;9441;51.420;7.036;2023-10-31T00:45:23;8.30;;;6.73;;
18623;SDS011;9441;51.420;7.036;2023-10-31T00:46:26;10.43;;;7.10;;
18623;SDS011;9441;51.420;7.036;2023-10-31T00:47:27;8.53;;;6.70;;
18623;SDS011;9441;51.420;7.036;2023-10-31T00:48:28;9.47;;;6.77;;
18623;SDS011;9441;51.420;7.036;2023-10-31T00:49:32;7.33;;;6.53;;
18623;SDS011;9441;51.420;7.036;2023-10-31T00:50:35;7.03;;;5.80;;
18623;SDS011;9441;51.420;7.036;2023-10-31T00:51:37;6.53;;;5.47;;
18623;SDS011;9441;51.420;7.036;2023-10-31T00:52:39;6.33;;;5.53;;
18623;SDS011;9441;51.420;7.036;2023-10-31T00:53:41;5.77;;;4.87;;
18623;SDS011;9441;51.420;7.036;2023-10-31T00:54:42;6.03;;;5.03;;
18623;SDS011;9441;51.420;7.036;2023-10-31T00:55:44;6.53;;;4.87;;
18623;SDS011;9441;51.420;7.036;2023-10-31T00:56:47;5.10;;;4.60;;
18623;SDS011;9441;51.420;7.036;2023-10-31T00:57:49;6.33;;;4.50;;
18623;SDS011;9441;51.420;7.036;2023-10-31T00:58:50;4.70;;;4.30;;
18623;SDS011;9441;51.420;7.036;2023-10-31T00:59:53;4.40;;;4.00;;
18623;SDS011;9441;51.420;7.036;2023-10-31T01:00:54;4.37;;;3.80;;
18623;SDS011;9441;51.420;7.036;2023-10-31T01:01:56;7.20;;;4.10;;
18623;SDS011;9441;51.420;7.036;2023-10-31T01:02:58;5.73;;;4.00;;
18623;SDS011;9441;51.420;7.036;2023-10-31T01:04:00;5.53;;;3.80;;
18623;SDS011;9441;51.420;7.036;2023-10-31T01:05:01;7.30;;;3.87;;
18623;SDS011;9441;51.420;7.036;2023-10-31T01:06:05;4.10;;;3.53;;
18623;SDS011;9441;51.420;7.036;2023-10-31T01:07:07;4.47;;;3.50;;
18623;SDS011;9441;51.420;7.036;2023-10-31T01:08:12;4.10;;;3.60;;
18623;SDS011;9441;51.420;7.036;2023-10-31T01:09:13;4.40;;;3.70;;
18623;SDS011;9441;51.420;7.036;2023-10-31T01:10:15;4.60;;;3.50;;
18623;SDS011;9441;51.420;7.036;2023-10-31T01:11:17;4.03;;;3.37;;
18623;SDS011;9441;51.420;7.036;2023-10-31T01:12:18;5.47;;;3.57;;
18623;SDS011;9441;51.420;7.036;2023-10-31T01:13:20;8.07;;;3.87;;
18623;SDS011;9441;51.420;7.036;2023-10-31T01:14:22;3.63;;;3.10;;
18623;SDS011;9441;51.420;7.036;2023-10-31T01:15:24;4.70;;;3.23;;
18623;SDS011;9441;51.420;7.036;2023-10-31T01:16:26;4.00;;;2.90;;
18623;SDS011;9441;51.420;7.036;2023-10-31T01:17:28;3.87;;;3.00;;
18623;SDS011;9441;51.420;7.036;2023-10-31T01:18:30;7.27;;;3.50;;
18623;SDS011;9441;51.420;7.036;2023-10-31T01:19:32;6.70;;;3.40;;
18623;SDS011;9441;51.420;7.036;2023-10-31T01:20:34;4.60;;;3.40;;
18623;SDS011;9441;51.420;7.036;2023-10-31T01:21:38;5.90;;;3.40;;
18623;SDS011;9441;51.420;7.036;2023-10-31T01:22:40;7.50;;;3.80;;
18623;SDS011;9441;51.420;7.036;2023-10-31T01:23:42;6.73;;;3.50;;
18623;SDS011;9441;51.420;7.036;2023-10-31T01:24:43;6.90;;;3.43;;
18623;SDS011;9441;51.420;7.036;2023-10-31T01:25:46;5.90;;;3.57;;
18623;SDS011;9441;51.420;7.036;2023-10-31T01:26:47;5.63;;;3.63;;
18623;SDS011;9441;51.420;7.036;2023-10-31T01:27:49;5.30;;;3.83;;
18623;SDS011;9441;51.420;7.036;2023-10-31T01:28:51;4.50;;;3.53;;
18623;SDS011;9441;51.420;7.036;2023-10-31T01:29:54;6.50;;;3.40;;
18623;SDS011;9441;51.420;7.036;2023-10-31T01:30:56;6.47;;;4.03;;
18623;SDS011;9441;51.420;7.036;2023-10-31T01:31:58;7.77;;;3.60;;
18623;SDS011;9441;51.420;7.036;2023-10-31T01:33:02;6.53;;;4.40;;
18623;SDS011;9441;51.420;7.036;2023-10-31T01:34:03;9.63;;;5.93;;
18623;SDS011;9441;51.420;7.036;2023-10-31T01:35:06;10.63;;;6.10;;
18623;SDS011;9441;51.420;7.036;2023-10-31T01:36:07;10.57;;;6.90;;
18623;SDS011;9441;51.420;7.036;2023-10-31T01:37:12;12.67;;;7.00;;
18623;SDS011;9441;51.420;7.036;2023-10-31T01:38:14;9.97;;;7.37;;
18623;SDS011;9441;51.420;7.036;2023-10-31T01:39:16;11.27;;;7.33;;
18623;SDS011;9441;51.420;7.036;2023-10-31T01:40:17;11.50;;;7.43;;
18623;SDS011;9441;51.420;7.036;2023-10-31T01:41:20;9.33;;;7.30;;
18623;SDS011;9441;51.420;7.036;2023-10-31T01:42:21;11.37;;;7.03;;
18623;SDS011;9441;51.420;7.036;2023-10-31T01:43:30;10.63;;;7.13;;
18623;SDS011;9441;51.420;7.036;2023-10-31T01:44:31;13.03;;;8.00;;
18623;SDS011;9441;51.420;7.036;2023-10-31T01:45:33;10.83;;;7.93;;
18623;SDS011;9441;51.420;7.036;2023-10-31T01:46:35;11.77;;;8.00;;
18623;SDS011;9441;51.420;7.036;2023-10-31T01:47:36;12.90;;;8.17;;
18623;SDS011;9441;51.420;7.036;2023-10-31T01:48:39;10.70;;;7.57;;
18623;SDS011;9441;51.420;7.036;2023-10-31T01:49:40;10.10;;;7.80;;
18623;SDS011;9441;51.420;7.036;2023-10-31T01:50:43;12.13;;;7.60;;
18623;SDS011;9441;51.420;7.036;2023-10-31T01:51:44;10.93;;;7.93;;
18623;SDS011;9441;51.420;7.036;2023-10-31T01:52:48;11.23;;;7.87;;
18623;SDS011;9441;51.420;7.036;2023-10-31T01:53:50;11.90;;;7.83;;
18623;SDS011;9441;51.420;7.036;2023-10-31T01:54:52;10.90;;;7.73;;
18623;SDS011;9441;51.420;7.036;2023-10-31T01:55:54;12.27;;;8.93;;
18623;SDS011;9441;51.420;7.036;2023-10-31T01:56:56;13.13;;;8.30;;
18623;SDS011;9441;51.420;7.036;2023-10-31T01:57:58;13.10;;;8.53;;
18623;SDS011;9441;51.420;7.036;2023-10-31T01:59:01;11.97;;;8.07;;
18623;SDS011;9441;51.420;7.036;2023-10-31T02:00:03;11.97;;;8.30;;
18623;SDS011;9441;51.420;7.036;2023-10-31T02:01:12;13.40;;;7.93;;
18623;SDS011;9441;51.420;7.036;2023-10-31T02:02:14;11.83;;;7.90;;
18623;SDS011;9441;51.420;7.036;2023-10-31T02:03:17;15.67;;;8.27;;
18623;SDS011;9441;51.420;7.036;2023-10-31T02:04:18;12.83;;;8.00;;
18623;SDS011;9441;51.420;7.036;2023-10-31T02:05:21;11.90;;;8.53;;
18623;SDS011;9441;51.420;7.036;2023-10-31T02:06:22;15.17;;;8.37;;
18623;SDS011;9441;51.420;7.036;2023-10-31T02:07:25;11.70;;;8.13;;
18623;SDS011;9441;51.420;7.036;2023-10-31T02:08:27;13.37;;;8.40;;
18623;SDS011;9441;51.420;7.036;2023-10-31T02:09:30;14.13;;;8.50;;
18623;SDS011;9441;51.420;7.036;2023-10-31T02:10:31;12.73;;;8.07;;
18623;SDS011;9441;51.420;7.036;2023-10-31T02:11:33;10.67;;;8.03;;
18623;SDS011;9441;51.420;7.036;2023-10-31T02:12:35;13.10;;;7.67;;
18623;SDS011;9441;51.420;7.036;2023-10-31T02:13:37;14.93;;;7.90;;
18623;SDS011;9441;51.420;7.036;2023-10-31T02:14:40;10.30;;;8.13;;
18623;SDS011;9441;51.420;7.036;2023-10-31T02:15:42;13.20;;;7.77;;
18623;SDS011;9441;51.420;7.036;2023-10-31T02:16:43;12.03;;;7.70;;
18623;SDS011;9441;51.420;7.036;2023-10-31T02:17:46;13.83;;;8.03;;
18623;SDS011;9441;51.420;7.036;2023-10-31T02:18:47;13.03;;;8.20;;
18623;SDS011;9441;51.420;7.036;2023-10-31T02:19:49;13.43;;;7.60;;
18623;SDS011;9441;51.420;7.036;2023-10-31T02:20:51;10.40;;;7.07;;
18623;SDS011;9441;51.420;7.036;2023-10-31T02:21:54;10.80;;;7.63;;
18623;SDS011;9441;51.420;7.036;2023-10-31T02:22:56;10.07;;;7.17;;
18623;SDS011;9441;51.420;7.036;2023-10-31T02:23:58;11.93;;;7.53;;
18623;SDS011;9441;51.420;7.036;2023-10-31T02:24:59;10.70;;;7.10;;
18623;SDS011;9441;51.420;7.036;2023-10-31T02:26:02;10.57;;;6.67;;
18623;SDS011;9441;51.420;7.036;2023-10-31T02:27:04;11.27;;;6.90;;
18623;SDS011;9441;51.420;7.036;2023-10-31T02:28:06;11.40;;;7.20;;
18623;SDS011;9441;51.420;7.036;2023-10-31T02:29:07;9.23;;;7.00;;
18623;SDS011;9441;51.420;7.036;2023-10-31T02:30:09;14.37;;;7.30;;
18623;SDS011;9441;51.420;7.036;2023-10-31T02:31:11;12.00;;;6.73;;
18623;SDS011;9441;51.420;7.036;2023-10-31T02:32:13;14.00;;;7.10;;
18623;SDS011;9441;51.420;7.036;2023-10-31T02:33:15;10.60;;;6.77;;
18623;SDS011;9441;51.420;7.036;2023-10-31T02:34:16;11.80;;;6.77;;
18623;SDS011;9441;51.420;7.036;2023-10-31T02:35:19;9.17;;;6.43;;
18623;SDS011;9441;51.420;7.036;2023-10-31T02:36:20;9.33;;;6.40;;
18623;SDS011;9441;51.420;7.036;2023-10-31T02:37:24;10.93;;;6.40;;
18623;SDS011;9441;51.420;7.036;2023-10-31T02:38:26;8.83;;;6.30;;
18623;SDS011;9441;51.420;7.036;2023-10-31T02:39:29;8.73;;;6.20;;
18623;SDS011;9441;51.420;7.036;2023-10-31T02:40:30;9.13;;;6.80;;
18623;SDS011;9441;51.420;7.036;2023-10-31T02:41:32;12.73;;;7.13;;
18623;SDS011;9441;51.420;7.036;2023-10-31T02:42:34;12.63;;;6.87;;
18623;SDS011;9441;51.420;7.036;2023-10-31T02:43:36;9.03;;;6.73;;
18623;SDS011;9441;51.420;7.036;2023-10-31T02:44:38;11.07;;;7.47;;
18623;SDS011;9441;51.420;7.036;2023-10-31T02:45:40;12.17;;;7.43;;
18623;SDS011;9441;51.420;7.036;2023-10-31T02:46:41;12.30;;;8.00;;
18623;SDS011;9441;51.420;7.036;2023-10-31T02:47:44;12.13;;;7.33;;
18623;SDS011;9441;51.420;7.036;2023-10-31T02:48:45;15.33;;;8.10;;
18623;SDS011;9441;51.420;7.036;2023-10-31T02:49:47;15.00;;;8.83;;
18623;SDS011;9441;51.420;7.036;2023-10-31T02:50:49;16.77;;;9.13;;
18623;SDS011;9441;51.420;7.036;2023-10-31T02:51:51;13.27;;;8.20;;
18623;SDS011;9441;51.420;7.036;2023-10-31T02:52:54;16.43;;;8.87;;
18623;SDS011;9441;51.420;7.036;2023-10-31T02:53:56;19.17;;;9.77;;
18623;SDS011;9441;51.420;7.036;2023-10-31T02:54:57;15.87;;;8.80;;
18623;SDS011;9441;51.420;7.036;2023-10-31T02:55:58;19.63;;;10.23;;
18623;SDS011;9441;51.420;7.036;2023-10-31T02:57:01;13.83;;;9.20;;
18623;SDS011;9441;51.420;7.036;2023-10-31T02:58:02;17.47;;;9.10;;
18623;SDS011;9441;51.420;7.036;2023-10-31T02:59:05;18.50;;;9.07;;
18623;SDS011;9441;51.420;7.036;2023-10-31T03:00:06;17.63;;;9.23;;
18623;SDS011;9441;51.420;7.036;2023-10-31T03:01:09;18.13;;;10.27;;
18623;SDS011;9441;51.420;7.036;2023-10-31T03:02:10;21.53;;;9.87;;
18623;SDS011;9441;51.420;7.036;2023-10-31T03:03:13;20.00;;;9.77;;
18623;SDS011;9441;51.420;7.036;2023-10-31T03:04:14;19.63;;;9.63;;
18623;SDS011;9441;51.420;7.036;2023-10-31T03:05:16;15.97;;;9.37;;
18623;SDS011;9441;51.420;7.036;2023-10-31T03:06:18;20.63;;;9.63;;
18623;SDS011;9441;51.420;7.036;2023-10-31T03:07:20;19.90;;;10.20;;
18623;SDS011;9441;51.420;7.036;2023-10-31T03:08:24;25.10;;;10.27;;
18623;SDS011;9441;51.420;7.036;2023-10-31T03:09:26;21.07;;;10.00;;
18623;SDS011;9441;51.420;7.036;2023-10-31T03:10:29;21.23;;;9.90;;
18623;SDS011;9441;51.420;7.036;2023-10-31T03:11:31;21.17;;;10.30;;
18623;SDS011;9441;51.420;7.036;2023-10-31T03:12:32;17.87;;;9.67;;
18623;SDS011;9441;51.420;7.036;2023-10-31T03:13:35;16.47;;;9.70;;
18623;SDS011;9441;51.420;7.036;2023-10-31T03:14:36;17.60;;;9.70;;
18623;SDS011;9441;51.420;7.036;2023-10-31T03:15:39;17.50;;;9.67;;
18623;SDS011;9441;51.420;7.036;2023-10-31T03:16:41;18.67;;;9.40;;
18623;SDS011;9441;51.420;7.036;2023-10-31T03:17:43;19.57;;;9.87;;
18623;SDS011;9441;51.420;7.036;2023-10-31T03:18:44;24.10;;;10.27;;
18623;SDS011;9441;51.420;7.036;2023-10-31T03:19:47;19.63;;;9.73;;
18623;SDS011;9441;51.420;7.036;2023-10-31T03:20:48;21.27;;;10.50;;
18623;SDS011;9441;51.420;7.036;2023-10-31T03:21:50;20.30;;;10.07;;
18623;SDS011;9441;51.420;7.036;2023-10-31T03:22:52;16.67;;;9.43;;
18623;SDS011;9441;51.420;7.036;2023-10-31T03:23:55;25.87;;;11.07;;
18623;SDS011;9441;51.420;7.036;2023-10-31T03:24:57;21.60;;;10.10;;
18623;SDS011;9441;51.420;7.036;2023-10-31T03:25:58;23.53;;;10.30;;
18623;SDS011;9441;51.420;7.036;2023-10-31T03:27:00;23.70;;;9.47;;
18623;SDS011;9441;51.420;7.036;2023-10-31T03:28:02;23.00;;;10.40;;
18623;SDS011;9441;51.420;7.036;2023-10-31T03:29:05;19.57;;;9.40;;
18623;SDS011;9441;51.420;7.036;2023-10-31T03:30:06;20.40;;;10.43;;
18623;SDS011;9441;51.420;7.036;2023-10-31T03:31:09;21.83;;;10.13;;
18623;SDS011;9441;51.420;7.036;2023-10-31T03:32:11;20.60;;;10.00;;
18623;SDS011;9441;51.420;7.036;2023-10-31T03:33:13;17.63;;;10.07;;
18623;SDS011;9441;51.420;7.036;2023-10-31T03:34:15;21.40;;;10.30;;
18623;SDS011;9441;51.420;7.036;2023-10-31T03:35:18;19.43;;;10.00;;
18623;SDS011;9441;51.420;7.036;2023-10-31T03:36:20;20.70;;;10.53;;
18623;SDS011;9441;51.420;7.036;2023-10-31T03:37:22;23.07;;;9.87;;
18623;SDS011;9441;51.420;7.036;2023-10-31T03:38:23;18.53;;;10.03;;
18623;SDS011;9441;51.420;7.036;2023-10-31T03:39:27;21.97;;;10.13;;
18623;SDS011;9441;51.420;7.036;2023-10-31T03:40:28;25.30;;;10.30;;
18623;SDS011;9441;51.420;7.036;2023-10-31T03:41:31;21.00;;;10.33;;
18623;SDS011;9441;51.420;7.036;2023-10-31T03:42:32;25.83;;;10.33;;
18623;SDS011;9441;51.420;7.036;2023-10-31T03:43:36;20.63;;;9.87;;
18623;SDS011;9441;51.420;7.036;2023-10-31T03:44:38;25.90;;;9.17;;
18623;SDS011;9441;51.420;7.036;2023-10-31T03:45:41;18.67;;;9.53;;
18623;SDS011;9441;51.420;7.036;2023-10-31T03:46:42;17.43;;;9.50;;
18623;SDS011;9441;51.420;7.036;2023-10-31T03:47:44;22.53;;;9.50;;
18623;SDS011;9441;51.420;7.036;2023-10-31T03:48:45;19.37;;;9.40;;
18623;SDS011;9441;51.420;7.036;2023-10-31T03:49:48;22.40;;;9.17;;
18623;SDS011;9441;51.420;7.036;2023-10-31T03:50:49;17.50;;;9.30;;
18623;SDS011;9441;51.420;7.036;2023-10-31T03:51:51;19.57;;;9.13;;
18623;SDS011;9441;51.420;7.036;2023-10-31T03:52:53;23.63;;;9.43;;
18623;SDS011;9441;51.420;7.036;2023-10-31T03:53:55;18.70;;;9.93;;
18623;SDS011;9441;51.420;7.036;2023-10-31T03:54:58;19.57;;;9.83;;
18623;SDS011;9441;51.420;7.036;2023-10-31T03:56:00;17.87;;;9.17;;
18623;SDS011;9441;51.420;7.036;2023-10-31T03:57:03;23.07;;;9.83;;
18623;SDS011;9441;51.420;7.036;2023-10-31T03:58:04;22.07;;;10.20;;
18623;SDS011;9441;51.420;7.036;2023-10-31T03:59:07;19.87;;;9.93;;
18623;SDS011;9441;51.420;7.036;2023-10-31T04:00:08;21.57;;;9.97;;
18623;SDS011;9441;51.420;7.036;2023-10-31T04:01:15;21.87;;;9.80;;
18623;SDS011;9441;51.420;7.036;2023-10-31T04:02:18;20.83;;;10.10;;
18623;SDS011;9441;51.420;7.036;2023-10-31T04:03:19;20.03;;;9.83;;
18623;SDS011;9441;51.420;7.036;2023-10-31T04:04:21;19.10;;;10.00;;
18623;SDS011;9441;51.420;7.036;2023-10-31T04:05:23;22.50;;;9.93;;
18623;SDS011;9441;51.420;7.036;2023-10-31T04:06:25;25.40;;;10.47;;
18623;SDS011;9441;51.420;7.036;2023-10-31T04:07:26;21.00;;;9.80;;
18623;SDS011;9441;51.420;7.036;2023-10-31T04:08:29;17.80;;;9.57;;
18623;SDS011;9441;51.420;7.036;2023-10-31T04:09:30;22.40;;;9.90;;
18623;SDS011;9441;51.420;7.036;2023-10-31T04:10:34;19.13;;;9.83;;
18623;SDS011;9441;51.420;7.036;2023-10-31T04:11:35;17.43;;;9.27;;
18623;SDS011;9441;51.420;7.036;2023-10-31T04:12:38;22.37;;;9.80;;
18623;SDS011;9441;51.420;7.036;2023-10-31T04:13:40;20.77;;;9.50;;
18623;SDS011;9441;51.420;7.036;2023-10-31T04:14:42;18.67;;;9.90;;
18623;SDS011;9441;51.420;7.036;2023-10-31T04:15:43;18.20;;;8.70;;
18623;SDS011;9441;51.420;7.036;2023-10-31T04:16:45;20.60;;;9.50;;
18623;SDS011;9441;51.420;7.036;2023-10-31T04:17:47;19.97;;;9.37;;
18623;SDS011;9441;51.420;7.036;2023-10-31T04:18:49;24.87;;;9.33;;
18623;SDS011;9441;51.420;7.036;2023-10-31T04:19:50;21.60;;;9.73;;
18623;SDS011;9441;51.420;7.036;2023-10-31T04:20:53;20.27;;;9.50;;
18623;SDS011;9441;51.420;7.036;2023-10-31T04:21:54;20.87;;;10.03;;
18623;SDS011;9441;51.420;7.036;2023-10-31T04:22:56;21.00;;;9.80;;
18623;SDS011;9441;51.420;7.036;2023-10-31T04:23:58;22.87;;;10.43;;
18623;SDS011;9441;51.420;7.036;2023-10-31T04:25:00;21.57;;;10.23;;
18623;SDS011;9441;51.420;7.036;2023-10-31T04:26:03;18.60;;;9.57;;
18623;SDS011;9441;51.420;7.036;2023-10-31T04:27:05;21.37;;;10.20;;
18623;SDS011;9441;51.420;7.036;2023-10-31T04:28:07;17.83;;;10.47;;
18623;SDS011;9441;51.420;7.036;2023-10-31T04:29:09;22.50;;;10.53;;
18623;SDS011;9441;51.420;7.036;2023-10-31T04:30:11;23.20;;;10.67;;
18623;SDS011;9441;51.420;7.036;2023-10-31T04:31:13;21.07;;;10.37;;
18623;SDS011;9441;51.420;7.036;2023-10-31T04:32:15;19.83;;;10.20;;
18623;SDS011;9441;51.420;7.036;2023-10-31T04:33:17;22.30;;;10.57;;
18623;SDS011;9441;51.420;7.036;2023-10-31T04:34:18;18.90;;;9.53;;
18623;SDS011;9441;51.420;7.036;2023-10-31T04:35:20;26.07;;;9.77;;
18623;SDS011;9441;51.420;7.036;2023-10-31T04:36:22;22.70;;;10.37;;
18623;SDS011;9441;51.420;7.036;2023-10-31T04:37:24;20.87;;;10.37;;
18623;SDS011;9441;51.420;7.036;2023-10-31T04:38:25;18.57;;;9.80;;
18623;SDS011;9441;51.420;7.036;2023-10-31T04:39:28;21.50;;;10.63;;
18623;SDS011;9441;51.420;7.036;2023-10-31T04:40:29;21.10;;;9.90;;
18623;SDS011;9441;51.420;7.036;2023-10-31T04:41:33;18.57;;;10.00;;
18623;SDS011;9441;51.420;7.036;2023-10-31T04:42:34;22.33;;;10.27;;
18623;SDS011;9441;51.420;7.036;2023-10-31T04:43:36;19.10;;;9.80;;
18623;SDS011;9441;51.420;7.036;2023-10-31T04:44:38;22.97;;;9.80;;
18623;SDS011;9441;51.420;7.036;2023-10-31T04:45:40;18.50;;;9.63;;
18623;SDS011;9441;51.420;7.036;2023-10-31T04:46:42;20.47;;;10.07;;
18623;SDS011;9441;51.420;7.036;2023-10-31T04:47:44;19.87;;;10.80;;
18623;SDS011;9441;51.420;7.036;2023-10-31T04:48:46;21.43;;;9.97;;
18623;SDS011;9441;51.420;7.036;2023-10-31T04:49:48;19.27;;;9.73;;
18623;SDS011;9441;51.420;7.036;2023-10-31T04:50:49;19.07;;;9.23;;
18623;SDS011;9441;51.420;7.036;2023-10-31T04:51:51;20.03;;;10.20;;
18623;SDS011;9441;51.420;7.036;2023-10-31T04:52:53;23.57;;;10.07;;
18623;SDS011;9441;51.420;7.036;2023-10-31T04:53:55;17.87;;;9.67;;
18623;SDS011;9441;51.420;7.036;2023-10-31T04:54:56;22.37;;;9.83;;
18623;SDS011;9441;51.420;7.036;2023-10-31T04:55:59;19.23;;;9.33;;
18623;SDS011;9441;51.420;7.036;2023-10-31T04:57:02;17.77;;;9.30;;
18623;SDS011;9441;51.420;7.036;2023-10-31T04:58:04;20.23;;;8.77;;
18623;SDS011;9441;51.420;7.036;2023-10-31T04:59:06;17.03;;;9.20;;
18623;SDS011;9441;51.420;7.036;2023-10-31T05:00:08;18.23;;;8.80;;
18623;SDS011;9441;51.420;7.036;2023-10-31T05:01:10;20.20;;;9.03;;
18623;SDS011;9441;51.420;7.036;2023-10-31T05:02:13;19.37;;;8.80;;
18623;SDS011;9441;51.420;7.036;2023-10-31T05:03:14;21.20;;;9.37;;
18623;SDS011;9441;51.420;7.036;2023-10-31T05:04:16;18.73;;;8.90;;
18623;SDS011;9441;51.420;7.036;2023-10-31T05:05:18;18.70;;;8.30;;
18623;SDS011;9441;51.420;7.036;2023-10-31T05:06:21;19.10;;;9.83;;
18623;SDS011;9441;51.420;7.036;2023-10-31T05:07:22;19.70;;;9.37;;
18623;SDS011;9441;51.420;7.036;2023-10-31T05:08:26;17.10;;;9.33;;
18623;SDS011;9441;51.420;7.036;2023-10-31T05:09:27;21.37;;;10.27;;
18623;SDS011;9441;51.420;7.036;2023-10-31T05:10:29;20.80;;;9.43;;
18623;SDS011;9441;51.420;7.036;2023-10-31T05:11:31;17.37;;;9.83;;
18623;SDS011;9441;51.420;7.036;2023-10-31T05:12:33;19.77;;;9.67;;
18623;SDS011;9441;51.420;7.036;2023-10-31T05:13:36;17.17;;;9.50;;
18623;SDS011;9441;51.420;7.036;2023-10-31T05:14:37;19.40;;;10.10;;
18623;SDS011;9441;51.420;7.036;2023-10-31T05:15:40;19.60;;;9.70;;
18623;SDS011;9441;51.420;7.036;2023-10-31T05:16:41;22.93;;;10.27;;
18623;SDS011;9441;51.420;7.036;2023-10-31T05:17:44;18.70;;;10.20;;
18623;SDS011;9441;51.420;7.036;2023-10-31T05:18:45;21.73;;;10.80;;
18623;SDS011;9441;51.420;7.036;2023-10-31T05:19:47;25.10;;;10.70;;
18623;SDS011;9441;51.420;7.036;2023-10-31T05:20:49;19.03;;;10.03;;
18623;SDS011;9441;51.420;7.036;2023-10-31T05:21:51;23.77;;;10.70;;
18623;SDS011;9441;51.420;7.036;2023-10-31T05:22:53;21.87;;;11.17;;
18623;SDS011;9441;51.420;7.036;2023-10-31T05:23:55;19.77;;;11.07;;
18623;SDS011;9441;51.420;7.036;2023-10-31T05:24:56;19.67;;;10.80;;
18623;SDS011;9441;51.420;7.036;2023-10-31T05:25:58;21.47;;;11.00;;
18623;SDS011;9441;51.420;7.036;2023-10-31T05:27:00;21.43;;;11.70;;
18623;SDS011;9441;51.420;7.036;2023-10-31T05:28:03;23.00;;;11.53;;
18623;SDS011;9441;51.420;7.036;2023-10-31T05:29:05;25.50;;;12.43;;
18623;SDS011;9441;51.420;7.036;2023-10-31T05:30:08;20.23;;;11.73;;
18623;SDS011;9441;51.420;7.036;2023-10-31T05:31:09;23.77;;;11.87;;
18623;SDS011;9441;51.420;7.036;2023-10-31T05:32:11;21.27;;;12.10;;
18623;SDS011;9441;51.420;7.036;2023-10-31T05:33:14;23.33;;;11.97;;
18623;SDS011;9441;51.420;7.036;2023-10-31T05:34:15;22.13;;;11.60;;
18623;SDS011;9441;51.420;7.036;2023-10-31T05:35:17;21.13;;;11.23;;
18623;SDS011;9441;51.420;7.036;2023-10-31T05:36:19;25.27;;;12.53;;
18623;SDS011;9441;51.420;7.036;2023-10-31T05:37:21;22.20;;;11.90;;
18623;SDS011;9441;51.420;7.036;2023-10-31T05:38:23;21.20;;;12.57;;
18623;SDS011;9441;51.420;7.036;2023-10-31T05:39:24;24.50;;;12.17;;
18623;SDS011;9441;51.420;7.036;2023-10-31T05:40:26;26.23;;;12.43;;
18623;SDS011;9441;51.420;7.036;2023-10-31T05:41:29;26.40;;;12.43;;
18623;SDS011;9441;51.420;7.036;2023-10-31T05:42:32;27.10;;;13.50;;
18623;SDS011;9441;51.420;7.036;2023-10-31T05:43:35;24.50;;;13.23;;
18623;SDS011;9441;51.420;7.036;2023-10-31T05:44:37;27.17;;;14.20;;
18623;SDS011;9441;51.420;7.036;2023-10-31T05:45:39;26.40;;;13.67;;
18623;SDS011;9441;51.420;7.036;2023-10-31T05:46:41;26.10;;;13.83;;
18623;SDS011;9441;51.420;7.036;2023-10-31T05:47:42;26.67;;;14.53;;
18623;SDS011;9441;51.420;7.036;2023-10-31T05:48:45;24.87;;;13.77;;
18623;SDS011;9441;51.420;7.036;2023-10-31T05:49:46;30.57;;;13.97;;
18623;SDS011;9441;51.420;7.036;2023-10-31T05:50:49;28.93;;;14.27;;
18623;SDS011;9441;51.420;7.036;2023-10-31T05:51:50;28.80;;;13.63;;
18623;SDS011;9441;51.420;7.036;2023-10-31T05:52:53;28.37;;;14.57;;
18623;SDS011;9441;51.420;7.036;2023-10-31T05:53:54;27.17;;;14.00;;
18623;SDS011;9441;51.420;7.036;2023-10-31T05:54:56;27.07;;;13.90;;
18623;SDS011;9441;51.420;7.036;2023-10-31T05:55:57;28.87;;;14.53;;
18623;SDS011;9441;51.420;7.036;2023-10-31T05:56:59;23.90;;;14.27;;
18623;SDS011;9441;51.420;7.036;2023-10-31T05:58:01;26.10;;;14.63;;
18623;SDS011;9441;51.420;7.036;2023-10-31T05:59:04;28.17;;;13.83;;
18623;SDS011;9441;51.420;7.036;2023-10-31T06:00:07;34.07;;;15.40;;
18623;SDS011;9441;51.420;7.036;2023-10-31T06:01:15;32.77;;;15.33;;
18623;SDS011;9441;51.420;7.036;2023-10-31T06:02:17;35.97;;;16.60;;
18623;SDS011;9441;51.420;7.036;2023-10-31T06:03:18;29.60;;;15.30;;
18623;SDS011;9441;51.420;7.036;2023-10-31T06:04:20;29.77;;;15.67;;
18623;SDS011;9441;51.420;7.036;2023-10-31T06:05:22;33.37;;;15.00;;
18623;SDS011;9441;51.420;7.036;2023-10-31T06:06:25;28.03;;;14.83;;
18623;SDS011;9441;51.420;7.036;2023-10-31T06:07:26;35.63;;;15.90;;
18623;SDS011;9441;51.420;7.036;2023-10-31T06:08:29;30.20;;;14.77;;
18623;SDS011;9441;51.420;7.036;2023-10-31T06:09:30;30.17;;;15.47;;
18623;SDS011;9441;51.420;7.036;2023-10-31T06:10:33;28.90;;;14.63;;
18623;SDS011;9441;51.420;7.036;2023-10-31T06:11:34;27.43;;;14.83;;
18623;SDS011;9441;51.420;7.036;2023-10-31T06:12:37;29.07;;;14.90;;
18623;SDS011;9441;51.420;7.036;2023-10-31T06:13:38;31.43;;;15.57;;